createdAt,value
2022-08-27T00:00:04.297Z,15.8
2022-08-27T00:01:20.605Z,15.9
2022-08-27T00:02:36.883Z,16
2022-08-27T00:03:52.209Z,16.2
2022-08-27T00:05:08.487Z,16.2
2022-08-27T00:06:24.790Z,16.5
2022-08-27T00:07:41.091Z,16.6
2022-08-27T00:08:57.370Z,16.3
2022-08-27T00:10:13.671Z,16.6
2022-08-27T00:11:29.960Z,16.3
2022-08-27T00:12:46.250Z,17.1
2022-08-27T00:15:18.843Z,17.5
2022-08-27T00:16:35.139Z,17
2022-08-27T00:17:51.444Z,16.7
2022-08-27T00:19:07.719Z,17.1
2022-08-27T00:20:23.031Z,16.8
2022-08-27T00:22:55.634Z,17.5
2022-08-27T00:24:11.919Z,17.6
2022-08-27T00:25:28.220Z,17.3
2022-08-27T00:26:44.520Z,17.5
2022-08-27T00:28:00.793Z,17.5
2022-08-27T00:29:17.088Z,17.5
2022-08-27T00:30:33.397Z,17.4
2022-08-27T00:31:49.678Z,16.9
2022-08-27T00:33:05.982Z,17
2022-08-27T00:34:22.279Z,17.5
2022-08-27T00:35:38.564Z,16.6
2022-08-27T00:38:10.171Z,16.9
2022-08-27T00:39:25.484Z,17.6
2022-08-27T00:40:40.804Z,17.2
2022-08-27T00:41:57.085Z,17.6
2022-08-27T00:43:13.385Z,18
2022-08-27T00:45:45.963Z,17.9
2022-08-27T00:47:02.278Z,18.6
2022-08-27T00:48:18.571Z,17.7
2022-08-27T00:49:34.865Z,17.8
2022-08-27T00:50:51.146Z,18.3
2022-08-27T00:53:23.734Z,18.6
2022-08-27T00:54:40.032Z,17.7
2022-08-27T00:55:55.347Z,19.4
2022-08-27T00:57:10.663Z,18.7
2022-08-27T00:58:26.951Z,18.7
2022-08-27T00:59:43.238Z,18.6
2022-08-27T01:00:59.536Z,19.4
2022-08-27T01:02:15.841Z,19.4
2022-08-27T01:03:32.118Z,19.9
2022-08-27T01:04:48.422Z,19.9
2022-08-27T01:06:04.726Z,19.9
2022-08-27T01:07:21.014Z,20.2
2022-08-27T01:08:37.306Z,20.1
2022-08-27T01:09:52.618Z,19.8
2022-08-27T01:11:07.926Z,20.3
2022-08-27T01:12:24.215Z,20.3
2022-08-27T01:13:40.515Z,20.1
2022-08-27T01:14:56.808Z,20.7
2022-08-27T01:16:13.109Z,20.2
2022-08-27T01:17:28.428Z,20.7
2022-08-27T01:18:44.719Z,21.3
2022-08-27T01:20:01.006Z,21.3
2022-08-27T01:21:17.305Z,20.5
2022-08-27T01:23:49.888Z,21.3
2022-08-27T01:25:06.182Z,21.2
2022-08-27T01:26:22.473Z,21.3
2022-08-27T01:27:38.772Z,21.6
2022-08-27T01:28:55.068Z,21.5
2022-08-27T01:30:11.364Z,21.1
2022-08-27T01:31:27.646Z,21.6
2022-08-27T01:32:43.943Z,21.9
2022-08-27T01:33:59.271Z,21.5
2022-08-27T01:35:15.558Z,21.8
2022-08-27T01:36:31.843Z,21
2022-08-27T01:37:47.156Z,21.8
2022-08-27T01:39:02.482Z,21.9
2022-08-27T01:40:18.777Z,20.9
2022-08-27T01:41:35.055Z,21.2
2022-08-27T01:42:51.349Z,22
2022-08-27T01:44:07.651Z,22
2022-08-27T01:46:40.000Z,22.5
2022-08-27T01:47:56.543Z,22.4
2022-08-27T01:49:12.829Z,23.2
2022-08-27T01:50:29.129Z,24
2022-08-27T01:51:45.406Z,24.5
2022-08-27T01:54:18.010Z,24
2022-08-27T01:55:33.328Z,24
2022-08-27T01:56:48.631Z,25.2
2022-08-27T01:58:04.922Z,23.2
2022-08-27T01:59:21.213Z,23.6
2022-08-27T02:00:37.520Z,23.3
2022-08-27T02:03:10.098Z,23.1
2022-08-27T02:04:26.383Z,23.9
2022-08-27T02:05:42.682Z,23.7
2022-08-27T02:06:58.982Z,23.2
2022-08-27T02:08:15.279Z,23.5
2022-08-27T02:09:31.580Z,23.1
2022-08-27T02:10:47.870Z,24.4
2022-08-27T02:12:04.160Z,23.6
2022-08-27T02:13:19.458Z,23.2
2022-08-27T02:14:35.756Z,24.2
2022-08-27T02:15:52.046Z,23.7
2022-08-27T02:17:08.344Z,24.2
2022-08-27T02:18:24.644Z,23.7
2022-08-27T02:19:40.936Z,24.5
2022-08-27T02:20:57.225Z,23.8
2022-08-27T02:22:13.516Z,24.5
2022-08-27T02:23:28.833Z,23.7
2022-08-27T02:24:44.159Z,23.2
2022-08-27T02:26:00.438Z,24.6
2022-08-27T02:27:16.731Z,24.4
2022-08-27T02:28:33.032Z,24.9
2022-08-27T02:29:49.320Z,24.7
2022-08-27T02:31:05.623Z,24.9
2022-08-27T02:32:21.916Z,25.1
2022-08-27T02:33:38.220Z,25
2022-08-27T02:34:54.500Z,25
2022-08-27T02:36:10.794Z,26.1
2022-08-27T02:37:27.092Z,26.5
2022-08-27T02:38:43.381Z,27.7
2022-08-27T02:39:59.675Z,28.8
2022-08-27T02:41:14.990Z,29.4
2022-08-27T02:42:31.278Z,29.9
2022-08-27T02:43:47.585Z,30.1
2022-08-27T02:45:03.872Z,30.8
2022-08-27T02:46:20.174Z,30.8
2022-08-27T02:47:36.463Z,31.6
2022-08-27T02:48:52.761Z,32.4
2022-08-27T02:50:09.059Z,32.3
2022-08-27T02:51:25.333Z,33.3
2022-08-27T02:52:41.636Z,34.7
2022-08-27T02:53:57.930Z,33.3
2022-08-27T02:55:14.233Z,34.3
2022-08-27T02:56:30.527Z,34.5
2022-08-27T02:57:45.837Z,34.4
2022-08-27T02:59:02.114Z,34
2022-08-27T03:00:18.413Z,33.6
2022-08-27T03:01:34.714Z,33.1
2022-08-27T03:02:50.999Z,32.3
2022-08-27T03:04:07.306Z,32.5
2022-08-27T03:05:23.605Z,31
2022-08-27T03:06:39.890Z,31.4
2022-08-27T03:07:56.180Z,31.6
2022-08-27T03:10:28.772Z,31.8
2022-08-27T03:11:45.073Z,31.8
2022-08-27T03:13:01.365Z,31.4
2022-08-27T03:14:16.667Z,30.9
2022-08-27T03:15:32.957Z,32.2
2022-08-27T03:16:49.255Z,31.9
2022-08-27T03:18:05.544Z,31.5
2022-08-27T03:19:21.844Z,30.6
2022-08-27T03:20:38.138Z,31.4
2022-08-27T03:21:54.440Z,31
2022-08-27T03:23:10.722Z,30.7
2022-08-27T03:24:27.030Z,31
2022-08-27T03:25:43.310Z,30.4
2022-08-27T03:26:59.608Z,31.6
2022-08-27T03:28:15.892Z,31.5
2022-08-27T03:29:32.197Z,30.5
2022-08-27T03:30:47.501Z,29.6
2022-08-27T03:32:03.794Z,28.8
2022-08-27T03:33:20.103Z,29.4
2022-08-27T03:34:36.380Z,30
2022-08-27T03:35:52.683Z,29.7
2022-08-27T03:37:08.983Z,30.6
2022-08-27T03:38:25.266Z,30.3
2022-08-27T03:40:57.813Z,28.9
2022-08-27T03:42:14.102Z,29.7
2022-08-27T03:43:30.342Z,29.7
2022-08-27T03:44:46.590Z,30.5
2022-08-27T03:46:02.883Z,30.3
2022-08-27T03:47:18.192Z,29.9
2022-08-27T03:48:34.444Z,29
2022-08-27T03:49:50.680Z,29.4
2022-08-27T03:51:06.928Z,28.1
2022-08-27T03:52:23.175Z,27.2
2022-08-27T03:53:39.413Z,27.3
2022-08-27T03:54:55.657Z,27.8
2022-08-27T03:56:11.904Z,28.4
2022-08-27T03:57:28.147Z,27.5
2022-08-27T03:58:44.370Z,28.4
2022-08-27T04:00:00.628Z,28.4
2022-08-27T04:01:16.857Z,29
2022-08-27T04:03:49.342Z,28.5
2022-08-27T04:05:04.607Z,27.8
2022-08-27T04:06:20.836Z,28.9
2022-08-27T04:07:37.075Z,28.9
2022-08-27T04:08:53.315Z,28
2022-08-27T04:10:09.552Z,27.9
2022-08-27T04:11:25.805Z,27.3
2022-08-27T04:12:42.034Z,27.7
2022-08-27T04:13:58.276Z,27.1
2022-08-27T04:15:14.517Z,26.5
2022-08-27T04:16:30.766Z,27.2
2022-08-27T04:17:46.995Z,28.4
2022-08-27T04:19:03.234Z,27.4
2022-08-27T04:20:19.474Z,27.6
2022-08-27T04:21:34.724Z,27.1
2022-08-27T04:22:50.978Z,27
2022-08-27T04:24:07.213Z,27
2022-08-27T04:27:55.930Z,27
2022-08-27T04:29:11.204Z,27.1
2022-08-27T04:30:26.460Z,27.8
2022-08-27T04:31:42.697Z,26.9
2022-08-27T04:32:58.933Z,26.6
2022-08-27T04:34:15.172Z,26.8
2022-08-27T04:36:47.647Z,26.1
2022-08-27T04:38:03.898Z,27.5
2022-08-27T04:39:20.140Z,26.2
2022-08-27T04:40:36.383Z,26
2022-08-27T04:41:52.616Z,25.8
2022-08-27T04:44:25.097Z,26.4
2022-08-27T04:45:40.363Z,24.8
2022-08-27T04:46:55.615Z,25.3
2022-08-27T04:48:11.846Z,26.7
2022-08-27T04:49:28.081Z,25.9
2022-08-27T04:50:44.330Z,25
2022-08-27T04:52:00.566Z,24.5
2022-08-27T04:53:16.813Z,23.6
2022-08-27T04:54:33.062Z,23.9
2022-08-27T04:55:49.296Z,23.6
2022-08-27T04:57:05.523Z,24.2
2022-08-27T04:58:21.772Z,23.7
2022-08-27T04:59:37.034Z,23.4
2022-08-27T05:00:52.299Z,23.4
2022-08-27T05:02:08.525Z,23.4
2022-08-27T05:03:24.780Z,24.5
2022-08-27T05:04:41.019Z,24.3
2022-08-27T05:05:57.254Z,24
2022-08-27T05:07:13.486Z,23.9
2022-08-27T05:08:29.725Z,23.2
2022-08-27T05:09:45.980Z,22.3
2022-08-27T05:11:02.204Z,21.8
2022-08-27T05:12:18.453Z,21.7
2022-08-27T05:13:33.708Z,23.2
2022-08-27T05:14:48.961Z,22.2
2022-08-27T05:16:05.205Z,22.5
2022-08-27T05:17:21.441Z,22.1
2022-08-27T05:18:37.678Z,21.3
2022-08-27T05:19:53.930Z,21.8
2022-08-27T05:21:10.173Z,21.6
2022-08-27T05:22:26.404Z,20.6
2022-08-27T05:23:42.649Z,21.3
2022-08-27T05:24:58.893Z,20.9
2022-08-27T05:26:15.132Z,20.2
2022-08-27T05:27:31.368Z,19.8
2022-08-27T05:28:47.608Z,20.1
2022-08-27T05:30:03.849Z,20.2
2022-08-27T05:31:19.108Z,19.9
2022-08-27T05:32:34.358Z,19.8
2022-08-27T05:33:50.615Z,20.1
2022-08-27T05:35:06.851Z,20.7
2022-08-27T05:36:23.086Z,20.1
2022-08-27T05:37:39.331Z,20
2022-08-27T05:38:55.566Z,20.2
2022-08-27T05:40:11.797Z,20.1
2022-08-27T05:41:28.043Z,19.4
2022-08-27T05:42:44.297Z,20.2
2022-08-27T05:44:00.537Z,19.8
2022-08-27T05:45:16.766Z,19.6
2022-08-27T05:46:33.017Z,19.7
2022-08-27T05:47:49.243Z,18.6
2022-08-27T05:50:20.751Z,18.2
2022-08-27T05:51:36.980Z,18.8
2022-08-27T05:52:53.214Z,17.3
2022-08-27T05:54:09.457Z,17.8
2022-08-27T05:55:25.699Z,17.6
2022-08-27T05:56:41.952Z,18.2
2022-08-27T05:57:58.196Z,17.9
2022-08-27T05:59:14.420Z,18
2022-08-27T06:00:30.675Z,17.5
2022-08-27T06:01:46.909Z,17.1
2022-08-27T06:03:03.142Z,17.8
2022-08-27T06:04:19.388Z,16.7
2022-08-27T06:05:34.633Z,17.3
2022-08-27T06:06:50.886Z,17.3
2022-08-27T06:08:07.123Z,17
2022-08-27T06:09:23.351Z,16.7
2022-08-27T06:10:39.603Z,17.2
2022-08-27T06:11:55.840Z,17.5
2022-08-27T06:13:12.089Z,18.1
2022-08-27T06:14:28.316Z,17.9
2022-08-27T06:15:44.555Z,17.2
2022-08-27T06:17:00.793Z,16.9
2022-08-27T06:18:17.051Z,17.6
2022-08-27T06:20:49.523Z,16.8
2022-08-27T06:22:04.787Z,17.3
2022-08-27T06:23:21.022Z,17
2022-08-27T06:24:37.249Z,16.5
2022-08-27T06:25:53.495Z,17.3
2022-08-27T06:27:09.745Z,16.6
2022-08-27T06:28:25.983Z,16.4
2022-08-27T06:29:42.212Z,17.5
2022-08-27T06:30:58.455Z,17.8
2022-08-27T06:32:14.699Z,17.9
2022-08-27T06:33:30.949Z,18.5
2022-08-27T06:34:47.177Z,18.1
2022-08-27T06:36:03.416Z,19
2022-08-27T06:37:19.655Z,19.1
2022-08-27T06:38:34.905Z,19.5
2022-08-27T06:39:51.164Z,20.4
2022-08-27T06:41:07.394Z,20.6
2022-08-27T06:42:23.641Z,20.6
2022-08-27T06:43:39.868Z,21.1
2022-08-27T06:44:56.117Z,21.2
2022-08-27T06:46:12.362Z,22.4
2022-08-27T06:47:28.598Z,23.5
2022-08-27T06:48:44.829Z,23.6
2022-08-27T06:50:01.069Z,23.4
2022-08-27T06:51:17.320Z,23.9
2022-08-27T06:52:33.554Z,23.5
2022-08-27T06:53:49.804Z,23.5
2022-08-27T06:55:05.050Z,22.8
2022-08-27T06:56:21.299Z,23.9
2022-08-27T06:57:37.531Z,23.3
2022-08-27T06:58:53.774Z,23.4
2022-08-27T07:00:10.021Z,23
2022-08-27T07:01:26.257Z,23.4
2022-08-27T07:02:42.501Z,23.3
2022-08-27T07:03:58.724Z,22.7
2022-08-27T07:05:14.976Z,23
2022-08-27T07:06:31.212Z,23.6
2022-08-27T07:07:47.451Z,23.6
2022-08-27T07:09:03.702Z,23.5
2022-08-27T07:10:19.933Z,24
2022-08-27T07:11:35.190Z,23.8
2022-08-27T07:12:51.424Z,24.3
2022-08-27T07:14:07.681Z,24.5
2022-08-27T07:15:23.908Z,23.7
2022-08-27T07:16:40.153Z,24.9
2022-08-27T07:17:56.400Z,24.3
2022-08-27T07:19:12.633Z,24.7
2022-08-27T07:20:28.870Z,25.3
2022-08-27T07:21:45.113Z,25.1
2022-08-27T07:23:01.360Z,25.8
2022-08-27T07:24:17.602Z,26.4
2022-08-27T07:25:33.840Z,25.6
2022-08-27T07:26:50.074Z,24.4
2022-08-27T07:28:05.328Z,25.5
2022-08-27T07:29:21.562Z,26.2
2022-08-27T07:30:37.817Z,26.1
2022-08-27T07:31:54.051Z,25.7
2022-08-27T07:33:10.287Z,25.2
2022-08-27T07:34:26.529Z,25.6
2022-08-27T07:35:42.778Z,25
2022-08-27T07:36:58.999Z,24.3
2022-08-27T07:38:15.241Z,25.3
2022-08-27T07:39:31.489Z,24.3
2022-08-27T07:40:47.720Z,23.9
2022-08-27T07:42:03.966Z,23.5
2022-08-27T07:43:20.215Z,26.3
2022-08-27T07:44:35.457Z,27.1
2022-08-27T07:45:51.712Z,26.4
2022-08-27T07:47:07.950Z,27.9
2022-08-27T07:48:24.197Z,26.4
2022-08-27T07:49:40.437Z,25.9
2022-08-27T07:50:56.665Z,26.9
2022-08-27T07:52:12.904Z,26.1
2022-08-27T07:54:45.397Z,25.7
2022-08-27T07:56:01.620Z,27.3
2022-08-27T07:57:17.874Z,27.2
2022-08-27T07:58:34.105Z,26.7
2022-08-27T07:59:50.352Z,28.4
2022-08-27T08:01:06.580Z,29.4
2022-08-27T08:02:21.850Z,30
2022-08-27T08:03:38.080Z,29.2
2022-08-27T08:04:54.336Z,29.2
2022-08-27T08:06:10.561Z,29.6
2022-08-27T08:07:26.805Z,28
2022-08-27T08:08:43.054Z,27.9
2022-08-27T08:09:59.284Z,29.7
2022-08-27T08:11:15.520Z,28.6
2022-08-27T08:12:31.775Z,28.3
2022-08-27T08:13:48.004Z,27.8
2022-08-27T08:15:04.238Z,27.4
2022-08-27T08:16:20.478Z,26.7
2022-08-27T08:17:36.735Z,27.4
2022-08-27T08:18:51.992Z,25.8
2022-08-27T08:20:08.219Z,25.3
2022-08-27T08:21:24.472Z,26.5
2022-08-27T08:22:40.705Z,25
2022-08-27T08:23:56.953Z,25.4
2022-08-27T08:25:13.183Z,25.2
2022-08-27T08:26:29.414Z,26
2022-08-27T08:27:45.665Z,24.9
2022-08-27T08:30:18.136Z,25.7
2022-08-27T08:31:34.383Z,26.7
2022-08-27T08:32:50.621Z,25.9
2022-08-27T08:34:06.857Z,25.1
2022-08-27T08:35:22.111Z,25.5
2022-08-27T08:36:38.359Z,24.3
2022-08-27T08:37:54.592Z,25.4
2022-08-27T08:39:10.830Z,23.9
2022-08-27T08:40:27.086Z,21.2
2022-08-27T08:41:43.313Z,23
2022-08-27T08:42:59.563Z,21.6
2022-08-27T08:44:15.809Z,22.7
2022-08-27T08:45:32.049Z,22.6
2022-08-27T08:46:48.287Z,23
2022-08-27T08:48:04.526Z,23.3
2022-08-27T08:49:20.768Z,21.4
2022-08-27T08:50:36.998Z,22.9
2022-08-27T08:53:08.491Z,23.2
2022-08-27T08:54:24.732Z,22.1
2022-08-27T08:55:40.975Z,22
2022-08-27T08:56:57.221Z,23.2
2022-08-27T08:58:13.452Z,21.5
2022-08-27T08:59:29.695Z,20.6
2022-08-27T09:00:45.948Z,20.6
2022-08-27T09:02:02.179Z,20.3
2022-08-27T09:03:18.424Z,22
2022-08-27T09:04:34.663Z,20.6
2022-08-27T09:05:50.894Z,21.5
2022-08-27T09:08:23.386Z,20.2
2022-08-27T09:09:39.611Z,20.5
2022-08-27T09:10:54.886Z,21
2022-08-27T09:12:11.111Z,20.7
2022-08-27T09:13:27.356Z,20.7
2022-08-27T09:14:43.608Z,20.4
2022-08-27T09:15:59.836Z,20.3
2022-08-27T09:17:16.070Z,21.3
2022-08-27T09:18:32.320Z,19.9
2022-08-27T09:19:48.562Z,20
2022-08-27T09:21:04.789Z,20.6
2022-08-27T09:22:21.049Z,20.3
2022-08-27T09:23:37.285Z,19.4
2022-08-27T09:24:53.511Z,20.3
2022-08-27T09:26:09.765Z,20.4
2022-08-27T09:27:26.008Z,20.5
2022-08-27T09:28:42.235Z,20.5
2022-08-27T09:29:57.489Z,20.2
2022-08-27T09:31:13.740Z,20.7
2022-08-27T09:32:29.967Z,21.1
2022-08-27T09:33:46.208Z,19.9
2022-08-27T09:35:02.450Z,20.1
2022-08-27T09:36:18.688Z,19.4
2022-08-27T09:38:51.175Z,20
2022-08-27T09:40:07.410Z,20.2
2022-08-27T09:41:23.659Z,19.5
2022-08-27T09:42:39.888Z,19.4
2022-08-27T09:43:56.131Z,19.2
2022-08-27T09:45:12.368Z,18.7
2022-08-27T09:46:27.642Z,18.5
2022-08-27T09:47:42.906Z,18.3
2022-08-27T09:48:59.132Z,17.3
2022-08-27T09:50:15.381Z,16.9
2022-08-27T09:51:31.624Z,17.5
2022-08-27T09:54:04.089Z,16.2
2022-08-27T09:55:20.343Z,16.5
2022-08-27T09:56:36.588Z,16.9
2022-08-27T09:57:52.828Z,16.3
2022-08-27T09:59:09.052Z,16.9
2022-08-27T10:00:25.304Z,17.1
2022-08-27T10:01:41.543Z,17.6
2022-08-27T10:02:57.784Z,17.1
2022-08-27T10:04:13.040Z,16.4
2022-08-27T10:05:29.271Z,16.8
2022-08-27T10:06:45.514Z,16.6
2022-08-27T10:08:01.746Z,16.5
2022-08-27T10:09:17.998Z,16.8
2022-08-27T10:10:34.226Z,16.4
2022-08-27T10:11:50.467Z,16.7
2022-08-27T10:13:06.710Z,16.3
2022-08-27T10:14:22.946Z,16.2
2022-08-27T10:15:39.205Z,16.4
2022-08-27T10:16:55.427Z,15.7
2022-08-27T10:18:11.681Z,16
2022-08-27T10:19:27.915Z,15.6
2022-08-27T10:20:44.163Z,16
2022-08-27T10:21:59.413Z,16.3
2022-08-27T10:23:15.657Z,16.5
2022-08-27T10:24:31.900Z,16.8
2022-08-27T10:25:48.133Z,16.3
2022-08-27T10:27:04.381Z,16.1
2022-08-27T10:28:20.622Z,16
2022-08-27T10:29:36.854Z,16.6
2022-08-27T10:30:53.087Z,16.9
2022-08-27T10:32:09.345Z,16.4
2022-08-27T10:33:25.568Z,16.3
2022-08-27T10:34:41.807Z,16.9
2022-08-27T10:35:58.059Z,16.3
2022-08-27T10:37:14.303Z,16.6
2022-08-27T10:38:29.556Z,15.8
2022-08-27T10:39:45.791Z,15.9
2022-08-27T10:41:02.026Z,16.4
2022-08-27T10:42:18.276Z,15.8
2022-08-27T10:43:34.509Z,15.4
2022-08-27T10:44:50.750Z,15.1
2022-08-27T10:46:06.992Z,13.2
2022-08-27T10:47:23.229Z,12.5
2022-08-27T10:48:39.480Z,12
2022-08-27T10:49:55.720Z,12.1
2022-08-27T10:51:11.956Z,11.9
2022-08-27T10:52:28.188Z,11.6
2022-08-27T10:53:44.444Z,11.5
2022-08-27T10:55:00.680Z,12.2
2022-08-27T10:56:15.925Z,12.1
2022-08-27T10:57:32.179Z,12
2022-08-27T10:58:48.406Z,11.5
2022-08-27T11:00:04.661Z,14.7
2022-08-27T11:02:37.132Z,22.8
2022-08-27T11:03:53.362Z,26.2
2022-08-27T11:05:09.621Z,27.2
2022-08-27T11:06:25.848Z,27.9
2022-08-27T11:07:42.085Z,27.6
2022-08-27T11:08:58.332Z,27.7
2022-08-27T11:10:14.573Z,29
2022-08-27T11:11:30.816Z,29.8
2022-08-27T11:12:46.067Z,30.6
2022-08-27T11:14:02.303Z,29.2
2022-08-27T11:15:18.540Z,29.2
2022-08-27T11:16:34.798Z,28.5
2022-08-27T11:17:51.037Z,29.9
2022-08-27T11:19:07.272Z,29.2
2022-08-27T11:20:23.518Z,29.2
2022-08-27T11:21:39.740Z,28.6
2022-08-27T11:22:55.999Z,29.5
2022-08-27T11:24:12.223Z,29.1
2022-08-27T11:25:28.460Z,28.9
2022-08-27T11:26:44.707Z,27.2
2022-08-27T11:28:00.940Z,25.3
2022-08-27T11:29:16.213Z,26.9
2022-08-27T11:30:32.437Z,27.1
2022-08-27T11:31:48.686Z,26.5
2022-08-27T11:33:04.930Z,27.7
2022-08-27T11:35:37.415Z,26.6
2022-08-27T11:36:53.639Z,27
2022-08-27T11:38:09.887Z,28.3
2022-08-27T11:39:26.137Z,27.1
2022-08-27T11:40:42.375Z,26
2022-08-27T11:41:58.604Z,24.9
2022-08-27T11:43:14.839Z,25.3
2022-08-27T11:44:31.094Z,24.7
2022-08-27T11:45:46.354Z,25
2022-08-27T11:47:02.590Z,25.6
2022-08-27T11:48:18.819Z,25.5
2022-08-27T11:49:35.063Z,23.9
2022-08-27T11:50:51.306Z,24.3
2022-08-27T11:52:07.539Z,24.5
2022-08-27T11:53:23.794Z,23.9
2022-08-27T11:55:56.265Z,23.3
2022-08-27T11:57:12.516Z,22.4
2022-08-27T11:58:28.747Z,22.4
2022-08-27T11:59:44.990Z,21.9
2022-08-27T12:01:01.237Z,21.6
2022-08-27T12:02:17.475Z,20.6
2022-08-27T12:03:32.732Z,19.6
2022-08-27T12:04:48.959Z,18.8
2022-08-27T12:06:05.201Z,18.2
2022-08-27T12:07:21.437Z,17
2022-08-27T12:08:37.682Z,17
2022-08-27T12:11:10.169Z,16.8
2022-08-27T12:12:26.408Z,16.9
2022-08-27T12:13:42.641Z,17.1
2022-08-27T12:14:58.882Z,16.5
2022-08-27T12:16:15.126Z,16.2
2022-08-27T12:17:31.371Z,16.5
2022-08-27T12:18:47.612Z,16.7
2022-08-27T12:20:02.854Z,16.6
2022-08-27T12:21:19.108Z,15.9
2022-08-27T12:22:35.349Z,16.9
2022-08-27T12:23:51.589Z,16
2022-08-27T12:25:07.828Z,16.8
2022-08-27T12:26:24.074Z,16.4
2022-08-27T12:27:40.298Z,16.6
2022-08-27T12:28:56.545Z,16.3
2022-08-27T12:30:12.785Z,16
2022-08-27T12:31:29.029Z,15.8
2022-08-27T12:34:01.497Z,14.9
2022-08-27T12:35:17.749Z,14.6
2022-08-27T12:36:32.996Z,14.3
2022-08-27T12:37:49.233Z,14.2
2022-08-27T12:39:05.489Z,14.4
2022-08-27T12:40:21.720Z,14.5
2022-08-27T12:41:37.961Z,15.9
2022-08-27T12:42:54.199Z,15.8
2022-08-27T12:44:10.437Z,16.3
2022-08-27T12:45:26.677Z,16.1
2022-08-27T12:46:42.931Z,15.1
2022-08-27T12:47:59.160Z,14.7
2022-08-27T12:49:15.401Z,14.9
2022-08-27T12:50:31.638Z,14.3
2022-08-27T12:51:47.883Z,14.7
2022-08-27T12:53:03.134Z,15.5
2022-08-27T12:54:19.371Z,16.1
2022-08-27T12:55:35.623Z,14.6
2022-08-27T12:56:51.853Z,15.8
2022-08-27T12:58:08.106Z,14.5
2022-08-27T12:59:24.344Z,14.9
2022-08-27T13:00:40.585Z,14.7
2022-08-27T13:01:56.813Z,14.6
2022-08-27T13:03:13.050Z,14.5
2022-08-27T13:04:29.308Z,13.5
2022-08-27T13:05:45.545Z,12.9
2022-08-27T13:07:01.791Z,11.6
2022-08-27T13:08:18.014Z,12.1
2022-08-27T13:09:33.275Z,13
2022-08-27T13:10:49.508Z,8.8
2022-08-27T13:12:05.763Z,9.9
2022-08-27T13:13:21.995Z,14.8
2022-08-27T13:14:38.240Z,20.9
2022-08-27T13:15:54.479Z,19
2022-08-27T13:17:10.727Z,19.3
2022-08-27T13:18:26.966Z,19.8
2022-08-27T13:19:43.196Z,21.6
2022-08-27T13:20:59.430Z,22.5
2022-08-27T13:22:15.687Z,23.8
2022-08-27T13:23:31.921Z,24.5
2022-08-27T13:24:48.161Z,24.8
2022-08-27T13:27:19.648Z,26.4
2022-08-27T13:28:35.903Z,27
2022-08-27T13:29:52.148Z,26.5
2022-08-27T13:31:08.367Z,28.6
2022-08-27T13:32:24.627Z,24.7
2022-08-27T13:34:57.109Z,9
2022-08-27T13:36:13.341Z,8.2
2022-08-27T13:37:29.583Z,5.3
2022-08-27T13:38:45.816Z,5.1
2022-08-27T13:40:02.059Z,4.8
2022-08-27T13:41:18.304Z,5.3
2022-08-27T13:42:33.553Z,5.4
2022-08-27T13:43:49.794Z,5.7
2022-08-27T13:45:06.041Z,5.4
2022-08-27T13:46:22.281Z,5.6
2022-08-27T13:47:38.509Z,5.9
2022-08-27T13:48:54.756Z,5.7
2022-08-27T13:50:10.990Z,6
2022-08-27T13:51:27.244Z,5.3
2022-08-27T13:52:43.471Z,5.5
2022-08-27T13:53:59.709Z,5.6
2022-08-27T13:55:15.954Z,5.8
2022-08-27T13:56:32.189Z,5.7
2022-08-27T13:57:48.446Z,5.9
2022-08-27T13:59:04.683Z,5.5
2022-08-27T14:00:19.927Z,6.4
2022-08-27T14:01:36.178Z,6.4
2022-08-27T14:02:51.444Z,6
2022-08-27T14:04:07.677Z,5.9
2022-08-27T14:05:23.913Z,5.9
2022-08-27T14:06:40.160Z,5.9
2022-08-27T14:07:56.391Z,6.3
2022-08-27T14:09:12.626Z,6.2
2022-08-27T14:10:28.888Z,7.2
2022-08-27T14:11:45.126Z,6.9
2022-08-27T14:13:01.360Z,7
2022-08-27T14:14:17.604Z,6.7
2022-08-27T14:15:33.843Z,7.3
2022-08-27T14:16:50.088Z,7.1
2022-08-27T14:18:06.324Z,7.8
2022-08-27T14:20:37.807Z,7
2022-08-27T14:21:54.052Z,7.1
2022-08-27T14:23:10.289Z,7.3
2022-08-27T14:24:26.541Z,6.9
2022-08-27T14:25:42.766Z,7.4
2022-08-27T14:28:15.250Z,7
2022-08-27T14:29:31.496Z,7.6
2022-08-27T14:30:47.734Z,7.7
2022-08-27T14:32:03.986Z,7.9
2022-08-27T14:33:20.209Z,6.9
2022-08-27T14:34:36.453Z,7.1
2022-08-27T14:35:52.698Z,7.2
2022-08-27T14:37:08.937Z,7.7
2022-08-27T14:38:24.202Z,7.6
2022-08-27T14:40:56.683Z,7.4
2022-08-27T14:42:11.940Z,7.5
2022-08-27T14:43:27.185Z,7
2022-08-27T14:44:43.424Z,7.5
2022-08-27T14:45:59.665Z,7.4
2022-08-27T14:47:15.912Z,7.3
2022-08-27T14:48:32.148Z,6.8
2022-08-27T14:49:48.390Z,7.2
2022-08-27T14:51:04.634Z,6.5
2022-08-27T14:52:20.878Z,6.2
2022-08-27T14:53:37.105Z,6.3
2022-08-27T14:54:53.348Z,6.6
2022-08-27T14:56:08.615Z,6.7
2022-08-27T14:58:40.100Z,6.5
2022-08-27T14:59:56.359Z,6.1
2022-08-27T15:01:12.586Z,5.9
2022-08-27T15:02:28.821Z,6.7
2022-08-27T15:03:45.080Z,6.7
2022-08-27T15:05:01.323Z,6.4
2022-08-27T15:06:17.543Z,6.1
2022-08-27T15:07:33.796Z,5.6
2022-08-27T15:08:50.034Z,4.7
2022-08-27T15:10:06.280Z,4
2022-08-27T15:11:22.517Z,3.7
2022-08-27T15:13:54.992Z,4
2022-08-27T15:15:11.224Z,4.5
2022-08-27T15:16:26.496Z,3.9
2022-08-27T15:17:42.720Z,3.9
2022-08-27T15:18:58.973Z,3.8
2022-08-27T15:20:15.200Z,3.8
2022-08-27T15:21:31.455Z,3.8
2022-08-27T15:22:47.695Z,3.8
2022-08-27T15:24:03.930Z,3.9
2022-08-27T15:25:20.175Z,4.1
2022-08-27T15:26:36.409Z,3.9
2022-08-27T15:27:52.657Z,4.3
2022-08-27T15:29:08.891Z,5.2
2022-08-27T15:30:25.131Z,5.2
2022-08-27T15:31:41.367Z,4.9
2022-08-27T15:32:56.620Z,4.6
2022-08-27T15:34:12.860Z,4.3
2022-08-27T15:35:29.117Z,5
2022-08-27T15:36:45.343Z,4.6
2022-08-27T15:38:01.583Z,5.3
2022-08-27T15:39:17.821Z,4.7
2022-08-27T15:40:34.061Z,5.1
2022-08-27T15:41:50.313Z,6.5
2022-08-27T15:44:22.786Z,4.2
2022-08-27T15:45:39.037Z,4
2022-08-27T15:46:55.275Z,4.3
2022-08-27T15:48:11.514Z,4
2022-08-27T15:49:26.769Z,4.3
2022-08-27T15:50:43.014Z,4.2
2022-08-27T15:51:59.248Z,4.8
2022-08-27T15:53:15.495Z,4.3
2022-08-27T15:54:31.724Z,4
2022-08-27T15:55:47.970Z,4.9
2022-08-27T15:57:04.205Z,4
2022-08-27T15:58:20.452Z,4.1
2022-08-27T15:59:36.680Z,4.1
2022-08-27T16:00:52.918Z,3.5
2022-08-27T16:02:09.159Z,3.6
2022-08-27T16:03:25.405Z,3.7
2022-08-27T16:04:41.658Z,3.5
2022-08-27T16:07:14.130Z,2.8
2022-08-27T16:08:29.379Z,4.1
2022-08-27T16:09:45.619Z,3.8
2022-08-27T16:11:01.865Z,4.1
2022-08-27T16:12:18.104Z,2.9
2022-08-27T16:13:34.354Z,3.7
2022-08-27T16:14:50.577Z,3.5
2022-08-27T16:16:06.820Z,2.7
2022-08-27T16:17:23.075Z,2.9
2022-08-27T16:18:39.309Z,3.1
2022-08-27T16:19:55.542Z,2.9
2022-08-27T16:21:11.790Z,2.9
2022-08-27T16:22:28.023Z,3
2022-08-27T16:23:44.273Z,3.1
2022-08-27T16:24:59.512Z,2.8
2022-08-27T16:26:15.764Z,3.2
2022-08-27T16:27:32.004Z,3.3
2022-08-27T16:28:48.234Z,3.1
2022-08-27T16:30:04.489Z,2.9
2022-08-27T16:31:20.732Z,3.1
2022-08-27T16:32:36.951Z,3.3
2022-08-27T16:33:53.195Z,3
2022-08-27T16:35:09.446Z,3.2
2022-08-27T16:36:25.677Z,3.3
2022-08-27T16:37:41.928Z,3.4
2022-08-27T16:38:58.153Z,3.5
2022-08-27T16:40:14.403Z,3.6
2022-08-27T16:41:29.648Z,3.5
2022-08-27T16:42:45.902Z,4.1
2022-08-27T16:44:02.131Z,3.9
2022-08-27T16:45:18.384Z,3.6
2022-08-27T16:46:34.617Z,4
2022-08-27T16:47:50.869Z,3.7
2022-08-27T16:49:07.100Z,4.7
2022-08-27T16:50:23.338Z,4.5
2022-08-27T16:51:39.579Z,4.9
2022-08-27T16:52:55.816Z,4
2022-08-27T16:54:12.053Z,3.8
2022-08-27T16:55:28.305Z,3.8
2022-08-27T16:56:44.549Z,3.2
2022-08-27T16:57:59.798Z,3.7
2022-08-27T16:59:16.046Z,4
2022-08-27T17:00:32.268Z,3.2
2022-08-27T17:01:48.509Z,2.9
2022-08-27T17:03:04.752Z,2.9
2022-08-27T17:04:20.987Z,3.2
2022-08-27T17:05:37.228Z,3.1
2022-08-27T17:08:09.727Z,2
2022-08-27T17:09:25.959Z,2.2
2022-08-27T17:10:42.203Z,2.4
2022-08-27T17:11:58.416Z,2.2
2022-08-27T17:13:14.636Z,3
2022-08-27T17:14:29.902Z,2
2022-08-27T17:17:02.378Z,2.5
2022-08-27T17:18:18.626Z,2.5
2022-08-27T17:19:34.860Z,2
2022-08-27T17:20:51.110Z,2.6
2022-08-27T17:22:07.349Z,1.9
2022-08-27T17:23:23.574Z,2.2
2022-08-27T17:24:39.813Z,2.6
2022-08-27T17:25:56.068Z,2.5
2022-08-27T17:27:12.309Z,2.2
2022-08-27T17:28:28.535Z,2.1
2022-08-27T17:29:44.792Z,2.2
2022-08-27T17:31:01.018Z,2.5
2022-08-27T17:32:16.282Z,2.7
2022-08-27T17:33:32.529Z,2.4
2022-08-27T17:34:48.757Z,2.5
2022-08-27T17:36:05.004Z,2.5
2022-08-27T17:37:21.243Z,2.7
2022-08-27T17:38:37.480Z,2
2022-08-27T17:39:53.713Z,2.3
2022-08-27T17:41:09.959Z,2.5
2022-08-27T17:43:42.436Z,2.6
2022-08-27T17:44:58.680Z,2.6
2022-08-27T17:46:14.911Z,2.4
2022-08-27T17:47:31.159Z,2.1
2022-08-27T17:48:46.425Z,2.9
2022-08-27T17:50:02.657Z,2.8
2022-08-27T17:51:18.895Z,2.9
2022-08-27T17:52:35.138Z,2.9
2022-08-27T17:53:51.387Z,2.8
2022-08-27T17:55:07.628Z,3.1
2022-08-27T17:56:23.856Z,2.9
2022-08-27T17:57:40.093Z,3.2
2022-08-27T17:58:56.332Z,3.3
2022-08-27T18:00:12.586Z,3.2